Johnsburg, Illinois
Current Conditions -  °F | °C
As of 10:55 AM on Monday 22 Dec 2014 (Local Time) from KUGN Reporting Station
Haze Haze  
Wind Chill: 27°   Ceiling: 5500
Heat Index: 36°   Visibility: 5mi
Dew Point: 31°   Wind: 14mph
Humidity: 82%   Direction: 130°SE
Pressure: 29.86"   Gusts: NA
Location:  42.338°N, 88.2857°W
Report Text: KUGN 221655Z 13012KT 5SM HZ FEW010 OVC055 02/M01 A2986 RMK AO2 SLP120 T00221006
Loading
Personal Weather Stations






























Interactive Weather Map New forecast layout! Learn more

10-Day Weather Forecast

Advertisements
Track Severe Weather on mobile